Time;durP1;ratioP1;P1;durP2;ratioP2;P2;SDS_P1;SDS_P2;PMS_P1;PMS_P2;Temp;Humidity;BMP_temperature;BMP_pressure;BME280_temperature;BME280_humidity;BME280_pressure;Samples;Min_cycle;Max_cycle;Signal;HPM_P1;HPM_P2
2022/03/01 00:02:02;;;;;;;61.35;13.68;;;6.20;99.90;;;;;;5020824;28;20045;-65
2022/03/01 00:04:29;;;;;;;56.38;14.05;;;6.20;99.90;;;;;;5001998;28;20053;-62
2022/03/01 00:06:57;;;;;;;56.90;13.68;;;6.10;99.90;;;;;;5031186;28;20072;-65
2022/03/01 00:09:25;;;;;;;63.30;13.75;;;6.10;99.90;;;;;;5007548;28;20050;-64
2022/03/01 00:11:52;;;;;;;61.35;12.55;;;6.10;99.90;;;;;;5038094;28;20061;-61
2022/03/01 00:14:20;;;;;;;56.42;14.63;;;6.10;99.90;;;;;;5029606;28;20049;-61
2022/03/01 00:16:48;;;;;;;58.22;13.68;;;6.20;99.90;;;;;;5009481;28;20508;-64
2022/03/01 00:19:15;;;;;;;60.10;14.23;;;6.20;99.90;;;;;;5024623;28;20061;-61
2022/03/01 00:21:43;;;;;;;52.65;14.45;;;6.20;99.90;;;;;;5022831;28;20045;-61
2022/03/01 00:24:10;;;;;;;44.58;12.23;;;6.20;99.90;;;;;;5022423;28;20042;-63
2022/03/01 00:26:39;;;;;;;53.60;13.85;;;6.30;99.90;;;;;;5020610;28;20053;-62
2022/03/01 00:29:07;;;;;;;47.83;12.55;;;6.20;99.90;;;;;;5029311;28;20038;-60
2022/03/01 00:31:36;;;;;;;49.03;11.82;;;6.20;99.90;;;;;;5023964;28;20042;-61
2022/03/01 00:34:04;;;;;;;55.55;11.63;;;6.20;99.90;;;;;;5010167;28;20041;-61
2022/03/01 00:36:32;;;;;;;33.70;8.82;;;6.20;99.90;;;;;;5016432;28;20046;-61
2022/03/01 00:38:59;;;;;;;48.58;9.30;;;6.20;99.90;;;;;;5026739;28;20045;-62
2022/03/01 00:41:27;;;;;;;40.65;8.15;;;6.20;99.90;;;;;;5024139;28;20041;-61
2022/03/01 00:43:55;;;;;;;39.03;9.27;;;6.30;99.90;;;;;;5030891;28;20041;-66
2022/03/01 00:46:26;;;;;;;45.15;8.90;;;6.20;99.90;;;;;;5032026;28;20052;-67
2022/03/01 00:48:54;;;;;;;38.75;7.72;;;6.20;99.90;;;;;;5052662;28;20037;-65
2022/03/01 00:51:23;;;;;;;34.20;8.68;;;6.30;99.90;;;;;;5014400;28;20041;-66
2022/03/01 00:53:50;;;;;;;31.20;7.18;;;6.30;99.90;;;;;;5034477;28;20048;-65
2022/03/01 00:56:18;;;;;;;37.22;7.70;;;6.30;99.90;;;;;;5015191;28;20066;-65
2022/03/01 00:58:46;;;;;;;35.35;8.90;;;6.30;99.90;;;;;;5030785;28;20048;-66
2022/03/01 01:01:13;;;;;;;25.02;6.13;;;6.30;99.90;;;;;;5034576;28;20041;-66
2022/03/01 01:03:44;;;;;;;30.10;7.45;;;6.30;99.90;;;;;;5044547;28;20049;-61
2022/03/01 01:06:12;;;;;;;22.83;5.40;;;6.40;99.90;;;;;;5042271;28;20053;-61
2022/03/01 01:08:40;;;;;;;25.92;5.72;;;6.30;99.90;;;;;;5039586;28;20052;-62
2022/03/01 01:11:09;;;;;;;32.75;6.00;;;6.30;99.90;;;;;;5014187;28;20057;-60
2022/03/01 01:13:37;;;;;;;36.50;6.47;;;6.30;99.90;;;;;;5027955;28;20041;-62
2022/03/01 01:16:05;;;;;;;23.83;5.20;;;6.20;99.90;;;;;;5045280;28;20052;-62
2022/03/01 01:18:33;;;;;;;37.70;6.22;;;6.10;99.90;;;;;;5048720;28;20053;-62
2022/03/01 01:21:01;;;;;;;34.42;5.72;;;6.00;99.90;;;;;;5052081;28;20048;-62
2022/03/01 01:23:28;;;;;;;27.42;5.18;;;6.00;99.90;;;;;;5048211;28;20424;-63
2022/03/01 01:25:56;;;;;;;32.13;6.72;;;6.00;99.90;;;;;;5046307;28;20049;-61
2022/03/01 01:28:24;;;;;;;32.47;6.90;;;6.00;99.90;;;;;;5051148;28;20048;-60
2022/03/01 01:30:51;;;;;;;31.08;7.00;;;6.00;99.90;;;;;;5043419;28;20052;-61
2022/03/01 01:33:19;;;;;;;30.00;6.15;;;5.90;99.90;;;;;;5047047;28;20057;-62
2022/03/01 01:35:47;;;;;;;31.02;6.93;;;5.90;99.90;;;;;;5043104;28;20038;-63
2022/03/01 01:38:16;;;;;;;;;;;5.90;99.90;;;;;;5047834;28;20068;-64
2022/03/01 01:40:44;;;;;;;28.02;6.70;;;5.90;99.90;;;;;;5031108;28;19925;-62
2022/03/01 01:43:12;;;;;;;40.67;8.82;;;5.90;99.90;;;;;;5023947;28;20057;-61
2022/03/01 01:45:40;;;;;;;27.23;7.30;;;5.90;99.90;;;;;;5044543;28;20501;-63
2022/03/01 01:48:07;;;;;;;39.83;7.70;;;5.80;99.90;;;;;;5033790;28;20048;-64
2022/03/01 01:50:35;;;;;;;31.33;7.15;;;5.80;99.90;;;;;;5047201;28;20056;-61
2022/03/01 01:53:03;;;;;;;27.08;8.45;;;5.80;99.90;;;;;;5041530;28;20048;-61
2022/03/01 01:55:31;;;;;;;35.53;8.60;;;5.80;99.90;;;;;;5029989;28;20052;-61
2022/03/01 01:57:58;;;;;;;31.77;8.32;;;5.80;99.90;;;;;;5043037;28;20049;-61
2022/03/01 02:00:28;;;;;;;45.33;8.35;;;5.80;99.90;;;;;;5014930;28;20060;-61
2022/03/01 02:02:58;;;;;;;36.28;9.23;;;5.80;99.90;;;;;;5050195;28;20051;-61
2022/03/01 02:05:27;;;;;;;;;;;5.80;99.90;;;;;;5057254;28;20044;-62
2022/03/01 02:07:55;;;;;;;32.40;8.18;;;5.80;99.90;;;;;;5028524;28;19920;-62
2022/03/01 02:10:27;;;;;;;30.48;7.80;;;5.80;99.90;;;;;;5047228;28;20160;-64
2022/03/01 02:12:59;;;;;;;24.75;7.78;;;5.70;99.90;;;;;;5038749;28;20049;-61
2022/03/01 02:15:28;;;;;;;24.73;8.40;;;5.60;99.90;;;;;;5026023;28;20034;-62
2022/03/01 02:17:55;;;;;;;33.95;8.55;;;5.60;99.90;;;;;;5041482;28;20399;-63
2022/03/01 02:20:24;;;;;;;50.60;10.40;;;5.50;99.90;;;;;;5043861;28;20037;-61
2022/03/01 02:22:54;;;;;;;36.20;10.13;;;5.40;99.90;;;;;;5035472;28;20056;-61
2022/03/01 02:25:22;;;;;;;;;;;5.40;99.90;;;;;;5042986;28;20045;-62
2022/03/01 02:27:49;;;;;;;31.60;8.18;;;5.30;99.90;;;;;;5038651;28;20287;-62
2022/03/01 02:30:17;;;;;;;28.17;8.15;;;5.30;99.90;;;;;;5039047;28;20496;-62
2022/03/01 02:32:47;;;;;;;;;;;5.20;99.90;;;;;;5039904;28;20037;-62
2022/03/01 02:35:15;;;;;;;33.97;8.25;;;5.20;99.90;;;;;;5041612;28;19921;-61
2022/03/01 02:37:44;;;;;;;28.45;8.05;;;5.10;99.90;;;;;;5054533;28;20044;-62
2022/03/01 02:40:12;;;;;;;36.47;9.38;;;5.10;99.90;;;;;;5046822;28;20049;-62
2022/03/01 02:42:42;;;;;;;42.95;9.35;;;5.10;99.90;;;;;;5046597;28;20427;-62
2022/03/01 02:45:11;;;;;;;49.05;10.73;;;5.10;99.90;;;;;;5051539;28;20048;-61
2022/03/01 02:47:39;;;;;;;34.95;9.23;;;5.10;99.90;;;;;;5039393;28;20416;-61
2022/03/01 02:50:09;;;;;;;38.17;8.80;;;5.10;99.90;;;;;;5038313;28;20041;-62
2022/03/01 02:52:37;;;;;;;58.22;9.93;;;5.00;99.90;;;;;;5061593;28;20066;-63
2022/03/01 02:55:06;;;;;;;40.60;11.43;;;5.00;99.90;;;;;;5046199;28;20048;-61
2022/03/01 02:57:34;;;;;;;44.20;9.05;;;4.90;99.90;;;;;;5051540;28;20052;-65
2022/03/01 03:00:04;;;;;;;45.70;10.10;;;4.90;99.90;;;;;;5040043;28;20056;-67
2022/03/01 03:02:31;;;;;;;59.55;11.77;;;4.90;99.90;;;;;;5044829;28;20080;-63
2022/03/01 03:04:59;;;;;;;37.75;9.38;;;4.90;99.90;;;;;;5034247;28;20052;-65
2022/03/01 03:07:27;;;;;;;41.47;11.30;;;4.60;99.90;;;;;;5033476;28;20049;-65
2022/03/01 03:09:54;;;;;;;35.28;9.05;;;4.80;99.90;;;;;;5043444;28;20057;-63
2022/03/01 03:12:22;;;;;;;45.13;10.38;;;4.70;99.90;;;;;;5046381;28;20489;-65
2022/03/01 03:14:50;;;;;;;50.67;10.75;;;4.70;99.90;;;;;;5040693;28;20068;-65
2022/03/01 03:17:17;;;;;;;56.25;11.38;;;4.70;99.90;;;;;;5053517;28;20045;-65
2022/03/01 03:19:45;;;;;;;56.42;11.35;;;4.70;99.90;;;;;;5041554;28;20038;-65
2022/03/01 03:22:13;;;;;;;47.53;10.75;;;4.70;99.90;;;;;;5036720;28;20049;-65
2022/03/01 03:24:40;;;;;;;45.38;12.20;;;4.80;99.90;;;;;;5027134;28;20044;-65
2022/03/01 03:27:08;;;;;;;49.72;11.35;;;4.90;99.90;;;;;;5055622;28;20412;-65
2022/03/01 03:29:36;;;;;;;48.40;12.35;;;4.90;99.90;;;;;;5041397;28;20071;-62
2022/03/01 03:32:04;;;;;;;59.47;11.80;;;5.00;99.90;;;;;;5052598;28;20053;-60
2022/03/01 03:34:31;;;;;;;57.65;13.45;;;5.10;99.90;;;;;;5060894;28;20059;-60
2022/03/01 03:36:59;;;;;;;59.08;12.45;;;5.10;99.90;;;;;;5035616;28;20045;-61
2022/03/01 03:39:27;;;;;;;77.35;14.57;;;5.10;99.90;;;;;;5049345;28;20045;-61
2022/03/01 03:41:55;;;;;;;72.22;15.75;;;5.10;99.90;;;;;;5036192;28;20049;-60
2022/03/01 03:44:22;;;;;;;66.65;12.90;;;5.20;99.90;;;;;;5025325;28;20049;-61
2022/03/01 03:46:53;;;;;;;68.95;13.52;;;5.20;99.90;;;;;;5047167;28;20048;-63
2022/03/01 03:49:22;;;;;;;60.10;13.82;;;5.10;99.90;;;;;;5034910;28;20052;-61
2022/03/01 03:51:50;;;;;;;68.43;14.48;;;5.20;99.90;;;;;;5034874;28;20361;-65
2022/03/01 03:54:17;;;;;;;71.30;13.45;;;5.20;99.90;;;;;;5041502;28;20095;-65
2022/03/01 03:56:46;;;;;;;74.43;16.58;;;5.20;99.90;;;;;;5039607;28;20052;-64
2022/03/01 03:59:16;;;;;;;58.97;13.50;;;5.10;99.90;;;;;;5048150;28;20044;-62
2022/03/01 04:01:44;;;;;;;58.67;14.00;;;5.10;99.90;;;;;;5015653;28;20045;-63
2022/03/01 04:04:12;;;;;;;68.45;13.52;;;5.10;99.90;;;;;;5032702;28;20053;-63
2022/03/01 04:06:40;;;;;;;61.20;12.18;;;5.00;99.90;;;;;;5034792;28;20042;-62
2022/03/01 04:09:08;;;;;;;66.55;12.85;;;4.90;99.90;;;;;;5043017;28;20049;-62
2022/03/01 04:11:35;;;;;;;58.50;11.98;;;4.90;99.90;;;;;;5040421;28;20374;-63
2022/03/01 04:14:03;;;;;;;44.92;12.45;;;4.80;99.90;;;;;;5032664;28;20037;-64
2022/03/01 04:16:31;;;;;;;54.85;12.52;;;4.70;99.90;;;;;;5015379;28;20056;-65
2022/03/01 04:19:02;;;;;;;48.92;11.55;;;4.70;99.90;;;;;;5037380;28;20037;-63
2022/03/01 04:21:30;;;;;;;75.78;12.77;;;4.70;99.90;;;;;;5050393;28;20110;-63
2022/03/01 04:23:57;;;;;;;57.90;13.00;;;4.70;99.90;;;;;;5037888;28;20049;-63
2022/03/01 04:26:25;;;;;;;68.53;13.57;;;4.60;99.90;;;;;;5034176;28;20452;-64
2022/03/01 04:28:53;;;;;;;57.83;12.15;;;4.60;99.90;;;;;;5034543;28;20057;-60
2022/03/01 04:31:21;;;;;;;65.53;13.27;;;4.60;99.90;;;;;;5060870;28;20051;-62
2022/03/01 04:33:49;;;;;;;57.35;13.00;;;4.50;99.90;;;;;;5040889;28;20056;-61
2022/03/01 04:36:17;;;;;;;63.15;13.20;;;4.50;99.90;;;;;;5036376;28;20488;-63
2022/03/01 04:38:44;;;;;;;58.33;12.68;;;4.40;99.90;;;;;;5050883;28;20488;-60
2022/03/01 04:41:12;;;;;;;58.65;13.85;;;4.40;99.90;;;;;;5048145;28;20481;-62
2022/03/01 04:43:41;;;;;;;60.05;12.85;;;4.30;99.90;;;;;;5040345;28;20049;-61
2022/03/01 04:46:10;;;;;;;61.53;12.23;;;4.30;99.90;;;;;;5032560;28;20392;-60
2022/03/01 04:48:38;;;;;;;65.97;12.00;;;4.30;99.90;;;;;;5048169;28;20049;-62
2022/03/01 04:51:06;;;;;;;64.18;12.30;;;4.20;99.90;;;;;;5032956;28;20041;-61
2022/03/01 04:53:34;;;;;;;69.05;13.70;;;4.20;99.90;;;;;;5048363;28;20041;-62
2022/03/01 04:56:01;;;;;;;75.00;13.02;;;4.10;99.90;;;;;;5011448;28;20041;-64
2022/03/01 04:58:29;;;;;;;65.97;14.68;;;4.00;99.90;;;;;;5023692;28;20060;-64
2022/03/01 05:00:58;;;;;;;66.60;13.75;;;4.00;99.90;;;;;;5051003;28;20048;-63
2022/03/01 05:03:26;;;;;;;60.00;12.05;;;4.00;99.90;;;;;;5036406;28;20057;-67
2022/03/01 05:05:53;;;;;;;57.35;14.18;;;4.00;99.90;;;;;;5043992;28;20124;-64
2022/03/01 05:08:21;;;;;;;62.85;12.63;;;3.90;99.90;;;;;;5050379;28;20052;-62
2022/03/01 05:10:49;;;;;;;60.78;13.07;;;3.90;99.90;;;;;;5037966;28;20397;-66
2022/03/01 05:13:16;;;;;;;68.82;13.40;;;3.80;99.90;;;;;;5032508;28;20061;-64
2022/03/01 05:15:44;;;;;;;78.78;12.75;;;3.80;99.90;;;;;;5032941;28;20049;-63
2022/03/01 05:18:11;;;;;;;72.70;12.85;;;3.70;99.90;;;;;;5032241;28;20050;-65
2022/03/01 05:20:39;;;;;;;60.28;12.05;;;3.70;99.90;;;;;;5028295;28;20045;-62
2022/03/01 05:23:07;;;;;;;67.50;13.32;;;3.60;99.90;;;;;;5049650;28;20041;-66
2022/03/01 05:25:36;;;;;;;81.93;13.13;;;3.60;99.90;;;;;;5039033;28;20064;-66
2022/03/01 05:28:04;;;;;;;91.43;15.23;;;3.60;99.90;;;;;;5016175;28;20041;-66
2022/03/01 05:30:32;;;;;;;75.00;14.07;;;3.50;99.90;;;;;;5035954;28;20045;-66
2022/03/01 05:33:00;;;;;;;79.25;13.98;;;3.50;99.90;;;;;;5045331;28;20053;-63
2022/03/01 05:35:30;;;;;;;56.28;13.80;;;3.50;99.90;;;;;;5036895;28;20041;-68
2022/03/01 05:37:58;;;;;;;65.40;11.88;;;3.40;99.90;;;;;;5046704;28;20072;-63
2022/03/01 05:40:29;;;;;;;61.58;13.10;;;3.40;99.90;;;;;;5037368;28;20054;-65
2022/03/01 05:42:58;;;;;;;66.18;13.25;;;3.30;99.90;;;;;;5014982;28;20052;-63
2022/03/01 05:45:26;;;;;;;51.13;11.80;;;3.30;99.90;;;;;;5040251;28;20044;-66
2022/03/01 05:47:54;;;;;;;53.13;12.98;;;3.20;99.90;;;;;;5036157;28;20516;-64
2022/03/01 05:50:22;;;;;;;51.85;11.15;;;3.20;99.90;;;;;;5023237;28;20087;-66
2022/03/01 05:52:50;;;;;;;47.03;10.52;;;3.10;99.90;;;;;;5027551;28;20041;-64
2022/03/01 05:55:19;;;;;;;47.05;10.98;;;3.10;99.90;;;;;;5023307;28;20049;-66
2022/03/01 05:57:49;;;;;;;39.35;11.77;;;3.10;99.90;;;;;;5038440;28;20504;-67
2022/03/01 06:00:19;;;;;;;43.25;9.18;;;3.00;99.90;;;;;;5035109;28;20060;-66
2022/03/01 06:02:50;;;;;;;40.92;8.98;;;3.00;99.90;;;;;;5023162;28;20052;-62
2022/03/01 06:05:26;;;;;;;44.08;9.50;;;2.90;99.90;;;;;;5043146;28;20049;-65
2022/03/01 06:07:56;;;;;;;41.92;9.50;;;2.90;99.90;;;;;;5059645;28;20052;-61
2022/03/01 06:10:25;;;;;;;38.55;8.80;;;2.90;99.90;;;;;;5043623;28;20045;-66
2022/03/01 06:12:53;;;;;;;42.60;8.50;;;2.80;99.90;;;;;;5021525;28;20053;-66
2022/03/01 06:15:22;;;;;;;34.67;8.60;;;2.80;99.90;;;;;;5043432;28;20045;-63
2022/03/01 06:17:50;;;;;;;48.67;8.70;;;2.80;99.90;;;;;;5042497;28;20049;-63
2022/03/01 06:20:18;;;;;;;39.50;8.35;;;2.70;99.90;;;;;;5027651;28;20558;-65
2022/03/01 06:22:49;;;;;;;43.45;9.02;;;2.70;99.90;;;;;;5035329;28;20057;-66
2022/03/01 06:25:21;;;;;;;37.00;8.23;;;2.70;99.90;;;;;;5020449;28;20045;-65
2022/03/01 06:27:52;;;;;;;39.60;8.73;;;2.70;99.90;;;;;;5043324;28;20063;-63
2022/03/01 06:30:21;;;;;;;36.90;9.80;;;2.60;99.90;;;;;;5044903;28;20052;-63
2022/03/01 06:32:49;;;;;;;43.27;9.80;;;2.60;99.90;;;;;;5045449;28;20055;-65
2022/03/01 06:35:20;;;;;;;45.92;10.75;;;2.60;99.90;;;;;;5062091;28;20070;-64
2022/03/01 06:37:52;;;;;;;36.10;8.30;;;2.60;99.90;;;;;;5060464;28;20052;-65
2022/03/01 06:40:24;;;;;;;41.92;9.45;;;2.60;99.90;;;;;;5041029;28;20052;-67
2022/03/01 06:42:55;;;;;;;31.20;8.00;;;2.50;99.90;;;;;;5041676;28;20045;-66
2022/03/01 06:45:23;;;;;;;28.10;9.27;;;2.50;99.90;;;;;;5049751;28;20056;-65
2022/03/01 06:47:51;;;;;;;37.65;8.40;;;2.50;99.90;;;;;;5053627;28;20051;-65
2022/03/01 06:50:19;;;;;;;38.97;8.73;;;2.40;99.90;;;;;;5052699;28;20045;-66
2022/03/01 06:52:47;;;;;;;47.78;9.38;;;2.40;99.90;;;;;;5037189;28;20052;-62
2022/03/01 06:55:16;;;;;;;37.80;7.78;;;2.40;99.90;;;;;;5048196;28;20059;-65
2022/03/01 06:57:44;;;;;;;32.28;7.78;;;2.40;99.90;;;;;;5053380;28;20496;-62
2022/03/01 07:00:14;;;;;;;33.97;6.82;;;2.40;99.90;;;;;;5030561;28;20049;-61
2022/03/01 07:02:42;;;;;;;37.17;7.20;;;2.30;99.90;;;;;;5048043;28;20056;-61
2022/03/01 07:05:14;;;;;;;29.17;6.88;;;2.30;99.90;;;;;;5063161;28;20055;-60
2022/03/01 07:07:45;;;;;;;27.63;7.13;;;2.30;99.90;;;;;;5022877;28;20048;-65
2022/03/01 07:10:21;;;;;;;34.95;7.15;;;2.30;99.90;;;;;;5041169;28;20057;-67
2022/03/01 07:12:50;;;;;;;29.77;6.63;;;2.30;99.90;;;;;;5046698;28;20037;-66
2022/03/01 07:15:19;;;;;;;37.25;7.60;;;2.40;99.90;;;;;;5046107;28;20058;-68
2022/03/01 07:17:50;;;;;;;35.17;7.97;;;2.40;99.90;;;;;;5038853;28;20049;-61
2022/03/01 07:20:17;;;;;;;38.72;8.10;;;2.30;99.90;;;;;;5048897;28;20049;-62
2022/03/01 07:22:49;;;;;;;27.55;7.40;;;2.30;99.90;;;;;;5033739;28;20049;-62
2022/03/01 07:25:24;;;;;;;28.00;8.05;;;2.40;99.90;;;;;;5040970;28;20052;-61
2022/03/01 07:27:56;;;;;;;32.90;8.60;;;2.40;99.90;;;;;;5038543;28;20060;-60
2022/03/01 07:30:26;;;;;;;36.53;9.13;;;2.50;99.90;;;;;;4999626;28;20050;-62
2022/03/01 07:32:56;;;;;;;34.00;8.48;;;2.50;99.90;;;;;;5048394;28;20049;-60
2022/03/01 07:35:27;;;;;;;42.30;8.75;;;2.60;99.90;;;;;;5034043;28;20049;-60
2022/03/01 07:37:55;;;;;;;41.40;8.60;;;2.60;99.90;;;;;;5047918;28;20037;-63
2022/03/01 07:40:27;;;;;;;27.40;7.57;;;2.70;99.90;;;;;;5033539;28;20072;-61
2022/03/01 07:42:58;;;;;;;34.23;9.13;;;2.80;99.90;;;;;;5036247;28;20056;-62
2022/03/01 07:45:26;;;;;;;36.13;7.82;;;2.80;99.90;;;;;;5034193;28;20504;-66
2022/03/01 07:47:54;;;;;;;27.02;8.50;;;2.90;99.90;;;;;;5044442;28;20045;-66
2022/03/01 07:50:22;;;;;;;30.52;8.10;;;3.00;99.90;;;;;;5022776;28;20055;-66
2022/03/01 07:52:52;;;;;;;26.77;7.15;;;3.10;99.90;;;;;;5043969;28;20052;-61
2022/03/01 07:55:20;;;;;;;27.65;7.63;;;3.20;99.90;;;;;;5041037;28;20060;-62
2022/03/01 07:57:51;;;;;;;42.15;8.77;;;3.20;99.90;;;;;;5040179;28;20037;-61
2022/03/01 08:00:19;;;;;;;28.25;8.02;;;3.30;99.90;;;;;;5035337;28;20053;-64
2022/03/01 08:02:47;;;;;;;30.67;7.10;;;3.40;99.90;;;;;;5038943;28;20048;-63
2022/03/01 08:05:15;;;;;;;27.60;7.57;;;3.50;99.90;;;;;;5031938;28;20052;-65
2022/03/01 08:07:49;;;;;;;31.42;8.43;;;3.50;99.90;;;;;;5041133;28;20040;-65
2022/03/01 08:10:18;;;;;;;30.85;7.38;;;3.50;99.90;;;;;;5034261;28;20046;-67
2022/03/01 08:12:45;;;;;;;33.13;8.40;;;4.80;99.90;;;;;;5046197;28;20041;-67
2022/03/01 08:15:14;;;;;;;19.83;7.75;;;3.60;99.90;;;;;;5043637;28;20072;-67
2022/03/01 08:17:54;;;;;;;28.63;7.68;;;3.70;99.90;;;;;;5046252;28;20523;-68
2022/03/01 08:20:23;;;;;;;29.73;8.30;;;3.70;99.90;;;;;;5036347;28;20045;-66
2022/03/01 08:22:51;;;;;;;18.25;7.97;;;3.70;99.90;;;;;;5031836;28;20060;-65
2022/03/01 08:25:19;;;;;;;28.52;8.52;;;3.70;99.90;;;;;;5016545;28;20056;-65
2022/03/01 08:27:47;;;;;;;30.58;7.35;;;3.70;99.90;;;;;;5036708;28;20053;-64
2022/03/01 08:30:17;;;;;;;20.65;6.72;;;3.80;99.90;;;;;;5036439;28;20144;-65
2022/03/01 08:32:46;;;;;;;24.40;6.72;;;3.80;99.90;;;;;;5044285;28;20047;-65
2022/03/01 08:35:13;;;;;;;25.30;7.38;;;3.80;99.90;;;;;;5044391;28;20484;-63
2022/03/01 08:37:42;;;;;;;20.60;5.22;;;3.80;99.90;;;;;;5036638;28;20048;-67
2022/03/01 08:40:12;;;;;;;22.73;6.40;;;3.90;99.90;;;;;;5033679;28;20052;-67
2022/03/01 08:42:40;;;;;;;22.67;5.60;;;3.90;99.90;;;;;;5066616;28;20056;-62
2022/03/01 08:45:08;;;;;;;20.75;5.82;;;3.90;99.90;;;;;;5065404;28;20479;-61
2022/03/01 08:47:40;;;;;;;18.48;6.32;;;4.00;99.90;;;;;;5034093;28;20038;-63
2022/03/01 08:50:08;;;;;;;22.57;7.47;;;4.00;99.90;;;;;;5034568;28;20045;-64
2022/03/01 08:52:56;;;;;;;24.02;6.13;;;4.00;99.90;;;;;;5053038;28;20048;-63
2022/03/01 08:55:24;;;;;;;25.52;6.28;;;4.10;99.90;;;;;;5038622;28;20059;-62
2022/03/01 08:57:52;;;;;;;30.83;6.93;;;4.10;99.90;;;;;;5021091;28;20515;-61
2022/03/01 09:00:20;;;;;;;28.88;5.60;;;4.20;99.90;;;;;;5037433;28;20050;-62
2022/03/01 09:02:47;;;;;;;15.65;4.93;;;4.30;99.90;;;;;;5045470;28;20072;-61
2022/03/01 09:05:15;;;;;;;21.58;3.92;;;4.40;99.90;;;;;;5031016;28;20052;-61
2022/03/01 09:07:43;;;;;;;19.50;3.65;;;4.50;99.90;;;;;;5063554;28;20071;-63
2022/03/01 09:10:11;;;;;;;17.38;4.35;;;4.50;99.90;;;;;;5048797;28;20496;-61
2022/03/01 09:12:39;;;;;;;17.27;3.53;;;4.60;99.90;;;;;;5046883;28;20048;-62
2022/03/01 09:15:07;;;;;;;5.95;2.60;;;4.70;99.90;;;;;;5041911;28;20040;-61
2022/03/01 09:17:35;;;;;;;15.23;2.67;;;4.80;99.90;;;;;;5038988;28;20044;-64
2022/03/01 09:20:03;;;;;;;13.18;2.58;;;4.90;99.90;;;;;;5068326;28;20047;-63
2022/03/01 09:22:31;;;;;;;11.82;1.95;;;5.00;99.90;;;;;;5032073;28;20411;-61
2022/03/01 09:24:59;;;;;;;7.30;2.17;;;5.00;99.90;;;;;;5031102;28;20425;-62
2022/03/01 09:27:29;;;;;;;8.90;1.98;;;5.20;99.90;;;;;;5035488;28;20414;-62
2022/03/01 09:29:57;;;;;;;10.93;1.70;;;5.20;99.90;;;;;;5049610;28;20051;-62
2022/03/01 09:32:26;;;;;;;9.73;1.63;;;5.20;99.90;;;;;;5030689;28;20051;-62
2022/03/01 09:34:55;;;;;;;13.70;2.15;;;5.30;99.90;;;;;;5050603;28;20056;-62
2022/03/01 09:37:23;;;;;;;;;;;5.40;99.90;;;;;;5050926;28;20049;-63
2022/03/01 09:39:51;;;;;;;11.43;1.88;;;5.40;99.90;;;;;;5048452;28;20266;-61
2022/03/01 09:42:19;;;;;;;6.90;1.63;;;5.50;99.90;;;;;;5045764;28;20059;-62
2022/03/01 09:44:46;;;;;;;9.57;1.58;;;5.50;99.90;;;;;;5039460;28;20069;-62
2022/03/01 09:47:14;;;;;;;12.70;1.02;;;5.60;99.90;;;;;;5046395;28;20064;-62
2022/03/01 09:49:42;;;;;;;11.60;1.63;;;5.60;99.90;;;;;;5054800;28;20045;-62
2022/03/01 09:52:14;;;;;;;9.15;1.25;;;5.60;99.90;;;;;;5050123;28;20045;-63
2022/03/01 09:54:42;;;;;;;11.95;1.38;;;5.70;99.90;;;;;;5039174;28;20068;-63
2022/03/01 09:57:14;;;;;;;9.05;2.30;;;5.80;99.90;;;;;;5029286;28;20052;-63
2022/03/01 09:59:42;;;;;;;12.75;2.90;;;5.80;99.90;;;;;;5034725;28;20053;-62
2022/03/01 10:02:10;;;;;;;8.57;2.45;;;6.00;99.90;;;;;;5034325;28;20068;-64
2022/03/01 10:04:54;;;;;;;28.20;3.90;;;6.10;99.90;;;;;;5035112;28;20041;-65
2022/03/01 10:07:30;;;;;;;9.55;1.13;;;6.20;99.90;;;;;;5026596;28;20512;-65
2022/03/01 10:10:09;;;;;;;25.27;6.55;;;6.30;99.90;;;;;;5054989;28;20052;-66
2022/03/01 10:12:39;;;;;;;8.48;3.35;;;6.50;99.90;;;;;;5052144;28;20396;-65
2022/03/01 10:15:10;;;;;;;17.55;5.20;;;6.60;99.90;;;;;;5053560;28;20056;-67
2022/03/01 10:17:46;;;;;;;8.82;1.83;;;6.70;99.90;;;;;;5043579;28;20044;-60
2022/03/01 10:20:18;;;;;;;7.07;1.35;;;6.90;99.90;;;;;;5034778;28;20071;-63
2022/03/01 10:22:53;;;;;;;8.98;1.00;;;6.90;99.90;;;;;;5048695;28;20447;-61
2022/03/01 10:25:23;;;;;;;13.23;1.55;;;7.10;99.90;;;;;;5047151;28;20457;-62
2022/03/01 10:27:52;;;;;;;10.90;1.20;;;7.20;99.90;;;;;;5042342;28;20379;-61
2022/03/01 10:30:32;;;;;;;4.63;0.98;;;7.20;99.90;;;;;;5050798;28;20052;-64
2022/03/01 10:33:09;;;;;;;7.40;1.23;;;7.40;99.90;;;;;;5041595;28;20037;-60
2022/03/01 10:35:42;;;;;;;8.27;0.93;;;7.50;99.90;;;;;;5061753;28;20041;-64
2022/03/01 10:38:10;;;;;;;16.75;3.80;;;7.50;99.90;;;;;;5058232;28;20041;-64
2022/03/01 10:40:39;;;;;;;15.38;4.28;;;7.60;99.90;;;;;;5045766;28;20037;-65
2022/03/01 10:43:13;;;;;;;7.68;1.58;;;7.70;99.90;;;;;;5050166;28;20051;-65
2022/03/01 10:45:46;;;;;;;12.10;3.17;;;7.90;99.90;;;;;;5040799;28;20049;-64
2022/03/01 10:48:27;;;;;;;9.65;2.10;;;7.90;99.90;;;;;;5038615;28;20179;-66
2022/03/01 10:51:02;;;;;;;9.82;2.08;;;8.00;99.90;;;;;;5045675;28;20045;-65
2022/03/01 10:53:35;;;;;;;6.85;1.35;;;8.20;99.90;;;;;;5057632;28;20048;-66
2022/03/01 10:56:05;;;;;;;8.35;1.20;;;8.30;99.90;;;;;;5052300;28;20501;-65
2022/03/01 10:58:36;;;;;;;10.13;1.48;;;8.40;99.90;;;;;;5036211;28;20064;-66
2022/03/01 11:01:05;;;;;;;14.57;1.40;;;8.40;99.90;;;;;;5033338;28;20049;-66
2022/03/01 11:03:33;;;;;;;10.60;1.25;;;8.60;99.90;;;;;;5056278;28;20036;-66
2022/03/01 11:06:03;;;;;;;10.75;1.50;;;8.70;99.90;;;;;;5019289;28;20049;-67
2022/03/01 11:08:34;;;;;;;7.22;1.00;;;8.80;99.90;;;;;;5039406;28;20056;-67
2022/03/01 11:11:06;;;;;;;8.68;1.00;;;9.00;99.90;;;;;;5035208;28;20049;-67
2022/03/01 11:13:44;;;;;;;6.80;1.00;;;9.10;99.90;;;;;;5052320;28;20047;-60
2022/03/01 11:16:13;;;;;;;12.10;1.75;;;9.20;99.90;;;;;;5030824;28;20057;-61
2022/03/01 11:19:38;;;;;;;6.93;1.40;;;9.30;99.90;;;;;;5042529;28;20484;-60
2022/03/01 11:22:21;;;;;;;29.20;11.15;;;9.60;99.90;;;;;;4970032;28;20054;-61
2022/03/01 11:24:52;;;;;;;14.15;2.05;;;9.70;99.90;;;;;;5069933;28;20055;-62
2022/03/01 11:27:22;;;;;;;5.93;1.50;;;9.80;99.90;;;;;;5040182;28;21603;-62
2022/03/01 11:29:51;;;;;;;8.27;1.25;;;9.90;99.90;;;;;;5070269;28;20048;-61
2022/03/01 11:32:22;;;;;;;4.40;1.30;;;10.10;99.90;;;;;;5056775;28;20064;-61
2022/03/01 11:35:01;;;;;;;9.50;1.48;;;10.20;99.90;;;;;;5044899;28;20477;-62
2022/03/01 11:37:28;;;;;;;9.57;1.90;;;10.30;99.90;;;;;;5038341;28;20044;-62
2022/03/01 11:39:58;;;;;;;6.05;1.92;;;10.40;99.90;;;;;;5041248;28;20060;-62
2022/03/01 11:42:30;;;;;;;;;;;10.60;99.90;;;;;;5023229;28;20048;-60
2022/03/01 11:45:09;;;;;;;7.32;1.05;;;10.70;99.90;;;;;;5039098;28;20300;-61
2022/03/01 11:47:37;;;;;;;6.33;0.97;;;11.00;99.90;;;;;;5040062;28;20400;-61
2022/03/01 11:50:21;;;;;;;6.72;1.20;;;11.20;99.90;;;;;;5030725;28;20769;-60
2022/03/01 11:53:03;;;;;;;7.10;1.10;;;11.40;99.90;;;;;;5042688;28;20059;-61
2022/03/01 11:55:43;;;;;;;6.15;1.35;;;11.60;99.90;;;;;;5051812;28;20045;-60
2022/03/01 11:58:12;;;;;;;9.80;1.63;;;11.90;99.90;;;;;;5029900;28;20060;-60
2022/03/01 12:00:41;;;;;;;8.35;2.08;;;12.00;99.90;;;;;;5029826;28;20053;-61
2022/03/01 12:03:12;;;;;;;6.63;1.58;;;12.20;99.90;;;;;;5040247;28;20056;-60
2022/03/01 12:05:41;;;;;;;10.88;1.58;;;12.40;99.90;;;;;;5069219;28;20040;-61
2022/03/01 12:08:12;;;;;;;7.05;2.10;;;12.60;99.90;;;;;;5067283;28;20480;-64
2022/03/01 12:10:56;;;;;;;7.82;1.40;;;12.90;99.90;;;;;;5048958;28;20323;-65
2022/03/01 12:13:47;;;;;;;10.63;1.77;;;13.00;99.90;;;;;;5043511;28;20048;-66
2022/03/01 12:16:25;;;;;;;;;;;13.20;99.90;;;;;;5015664;28;20106;-66
2022/03/01 12:19:05;;;;;;;16.33;1.65;;;13.40;98.10;;;;;;5047192;28;19929;-61
2022/03/01 12:21:33;;;;;;;9.88;2.00;;;13.60;97.60;;;;;;5057727;28;20060;-65
2022/03/01 12:24:01;;;;;;;5.05;1.27;;;13.70;95.20;;;;;;5050946;28;20052;-67
2022/03/01 12:26:29;;;;;;;9.30;1.25;;;13.80;91.30;;;;;;5044435;28;20400;-61
2022/03/01 12:28:59;;;;;;;5.88;0.90;;;13.80;93.50;;;;;;5050016;28;20120;-59
2022/03/01 12:31:29;;;;;;;;;;;13.80;86.90;;;;;;5030112;28;20045;-61
2022/03/01 12:34:00;;;;;;;7.00;1.20;;;13.90;80.70;;;;;;5043086;28;20312;-61
2022/03/01 12:36:30;;;;;;;6.13;1.05;;;14.10;89.20;;;;;;5038751;28;20047;-61
2022/03/01 12:38:59;;;;;;;;;;;14.40;91.00;;;;;;5060376;28;20067;-61
2022/03/01 12:41:27;;;;;;;12.93;1.77;;;14.70;80.20;;;;;;5030774;28;19921;-63
2022/03/01 12:44:00;;;;;;;12.20;2.00;;;14.90;78.60;;;;;;5048079;28;20038;-61
2022/03/01 12:46:29;;;;;;;9.45;1.20;;;15.10;77.10;;;;;;5028789;28;20100;-61
2022/03/01 12:48:58;;;;;;;5.80;1.60;;;15.30;72.60;;;;;;5036608;28;20128;-61
2022/03/01 12:51:27;;;;;;;9.23;1.58;;;15.30;68.30;;;;;;5036979;28;20056;-61
2022/03/01 12:54:10;;;;;;;12.07;1.80;;;15.30;68.20;;;;;;5058697;28;20396;-61
2022/03/01 12:56:41;;;;;;;8.15;1.13;;;15.30;71.00;;;;;;5061787;28;20104;-62
2022/03/01 12:59:12;;;;;;;7.32;1.58;;;15.50;73.10;;;;;;5068168;28;20056;-61
2022/03/01 13:01:43;;;;;;;5.47;1.13;;;15.70;73.10;;;;;;5053981;28;20487;-61